Central Virginia Flyers


Central Virginia Flyers is a 10 member flying club based in Richmond, VA at Hanover County Airport (KOFP). We own N787AT, a 1977 Cessna 172 with 180hp conversion. If you are interested in membership, please contact Brenton at [email protected]


Aviation Digital Data Service (ADDS)

Output produced by METARs form (2356 UTC 05 February 2016)
found at http://aviationweather.gov/adds/metars/
 
KOFP 052254Z AUTO 32003KT 10SM CLR 04/M08 A3036 RMK AO2 SLP283 T00441083
KRIC 052254Z 33011KT 10SM CLR 04/M07 A3034 RMK AO2 SLP281 T00391067
KRIC 052341Z 0600/0624 34006KT P6SM SKC 
     FM060900 32004KT P6SM SCT250 
     FM061800 18005KT P6SM SCT200